createdAt,value
2023-03-26T00:04:30.053Z,9.40
2023-03-26T00:14:33.574Z,9.40
2023-03-26T00:24:35.539Z,9.20
2023-03-26T00:34:39.242Z,9.00
2023-03-26T00:44:41.222Z,9.00
2023-03-26T00:54:44.912Z,9.10
2023-03-26T01:04:51.733Z,9.20
2023-03-26T01:14:58.996Z,9.20
2023-03-26T01:25:02.910Z,9.20
2023-03-26T01:35:18.446Z,9.20
2023-03-26T01:45:26.448Z,9.10
2023-03-26T01:55:37.027Z,9.10
2023-03-26T02:05:46.403Z,9.10
2023-03-26T02:15:56.817Z,9.00
2023-03-26T02:26:00.401Z,9.00
2023-03-26T02:36:02.730Z,9.10
2023-03-26T02:46:06.367Z,9.20
2023-03-26T02:56:09.986Z,9.30
2023-03-26T03:06:13.532Z,9.30
2023-03-26T03:16:16.194Z,9.30
2023-03-26T03:26:21.373Z,9.30
2023-03-26T03:36:23.834Z,9.20
2023-03-26T03:46:27.208Z,9.20
2023-03-26T03:56:29.400Z,9.10
2023-03-26T04:06:32.755Z,8.80
2023-03-26T04:16:34.753Z,8.80
2023-03-26T04:26:38.291Z,8.80
2023-03-26T04:36:40.818Z,8.70
2023-03-26T04:46:44.170Z,8.60
2023-03-26T04:56:50.867Z,8.50
2023-03-26T05:06:54.510Z,8.60
2023-03-26T05:16:56.808Z,8.60
2023-03-26T05:27:00.109Z,8.60
2023-03-26T05:37:04.166Z,8.50
2023-03-26T05:47:07.946Z,8.50
2023-03-26T05:57:09.982Z,8.40
2023-03-26T06:07:13.329Z,8.30
2023-03-26T06:17:15.283Z,8.20
2023-03-26T06:27:18.620Z,7.90
2023-03-26T06:37:20.574Z,7.80
2023-03-26T06:47:23.956Z,7.80
2023-03-26T06:57:26.086Z,7.80
2023-03-26T07:07:29.570Z,7.80
2023-03-26T07:17:31.540Z,7.70
2023-03-26T07:27:47.023Z,7.70
2023-03-26T07:38:00.393Z,7.60
2023-03-26T07:48:08.608Z,7.70
2023-03-26T07:58:23.349Z,7.70
2023-03-26T08:08:37.639Z,7.80
2023-03-26T08:18:46.912Z,7.90
2023-03-26T08:28:59.177Z,7.90
2023-03-26T08:39:01.175Z,8.00
2023-03-26T08:49:37.987Z,8.00
2023-03-26T09:00:08.353Z,8.00
2023-03-26T09:10:43.632Z,8.10
2023-03-26T09:21:12.304Z,8.10
2023-03-26T09:31:45.176Z,8.40
2023-03-26T09:41:58.540Z,8.60
2023-03-26T09:52:36.843Z,8.60
2023-03-26T10:02:55.359Z,8.90
2023-03-26T10:13:14.626Z,9.00
2023-03-26T10:23:41.362Z,9.10
2023-03-26T10:33:56.893Z,9.10
2023-03-26T10:44:15.007Z,9.40
2023-03-26T10:54:30.616Z,9.20
2023-03-26T11:15:46.656Z,9.30
2023-03-26T11:26:02.204Z,9.50
2023-03-26T11:36:12.102Z,9.60
2023-03-26T11:46:17.778Z,10.00
2023-03-26T11:56:27.460Z,10.60
2023-03-26T12:06:29.663Z,11.10
2023-03-26T12:16:36.528Z,11.20
2023-03-26T12:37:56.294Z,10.00
2023-03-26T12:48:03.432Z,10.00
2023-03-26T13:09:33.876Z,9.20
2023-03-26T13:42:05.764Z,9.20
2023-03-26T13:53:15.792Z,9.00
2023-03-26T14:02:40.569Z,8.90
2023-03-26T14:12:49.589Z,8.90
2023-03-26T14:23:14.662Z,9.00
2023-03-26T14:44:55.586Z,9.00
2023-03-26T14:55:03.908Z,9.10
2023-03-26T15:05:44.533Z,9.00
2023-03-26T15:16:10.686Z,9.10
2023-03-26T15:26:56.140Z,9.10
2023-03-26T15:37:24.600Z,9.00
2023-03-26T15:58:44.612Z,8.90
2023-03-26T16:08:58.698Z,8.80
2023-03-26T17:04:16.231Z,8.20
2023-03-26T17:14:30.822Z,8.30
2023-03-26T17:24:45.542Z,8.20
2023-03-26T17:45:14.742Z,8.10
2023-03-26T17:55:19.544Z,8.20
2023-03-26T18:05:27.068Z,8.00
2023-03-26T18:15:45.012Z,8.00
2023-03-26T18:26:23.899Z,7.90
2023-03-26T18:36:27.397Z,7.90
2023-03-26T18:57:41.601Z,7.70
2023-03-26T19:07:44.941Z,7.50
2023-03-26T19:28:55.883Z,7.40
2023-03-26T19:39:10.499Z,7.40
2023-03-26T19:49:29.054Z,7.30
2023-03-26T19:59:31.044Z,7.30
2023-03-26T20:09:34.379Z,7.30
2023-03-26T20:19:36.336Z,7.20
2023-03-26T20:29:39.978Z,7.20
2023-03-26T20:39:44.787Z,7.00
2023-03-26T20:49:48.147Z,6.70
2023-03-26T20:59:50.117Z,6.50
2023-03-26T21:09:54.295Z,6.40
2023-03-26T21:19:56.815Z,6.40
2023-03-26T21:30:00.618Z,6.50
2023-03-26T21:40:04.257Z,6.40
2023-03-26T21:50:09.871Z,6.50
2023-03-26T22:00:14.694Z,6.50
2023-03-26T22:10:18.225Z,6.50
2023-03-26T22:20:21.436Z,6.50
2023-03-26T22:30:25.760Z,6.50
2023-03-26T22:40:27.714Z,6.50
2023-03-26T22:50:31.209Z,6.40
2023-03-26T23:00:33.202Z,6.40
2023-03-26T23:10:36.589Z,6.40
2023-03-26T23:20:39.685Z,6.30
2023-03-26T23:30:46.206Z,6.30
2023-03-26T23:40:57.408Z,6.30
2023-03-26T23:51:03.975Z,6.20
